createdAt,value
2022-08-04T00:02:03.294Z,3.75
2022-08-04T00:07:44.401Z,4.10
2022-08-04T00:13:09.593Z,3.95
2022-08-04T00:18:41.032Z,4.38
2022-08-04T00:24:10.803Z,4.07
2022-08-04T00:29:38.007Z,4.65
2022-08-04T00:35:00.696Z,4.32
2022-08-04T00:40:31.439Z,4.28
2022-08-04T00:46:15.948Z,4.38
2022-08-04T00:51:47.028Z,3.95
2022-08-04T00:57:34.697Z,4.03
2022-08-04T01:03:14.501Z,4.38
2022-08-04T01:08:55.190Z,4.72
2022-08-04T01:14:47.616Z,4.47
2022-08-04T01:20:12.066Z,4.22
2022-08-04T01:26:43.332Z,4.63
2022-08-04T01:32:07.416Z,4.70
2022-08-04T01:37:49.849Z,4.93
2022-08-04T01:43:14.604Z,4.65
2022-08-04T01:48:39.682Z,4.90
2022-08-04T01:54:02.038Z,4.72
2022-08-04T01:59:25.881Z,4.95
2022-08-04T02:04:48.042Z,4.63
2022-08-04T02:10:40.914Z,4.88
2022-08-04T02:16:09.167Z,4.57
2022-08-04T02:21:42.046Z,4.95
2022-08-04T02:27:05.895Z,4.88
2022-08-04T02:32:32.451Z,4.57
2022-08-04T02:38:27.733Z,4.50
2022-08-04T02:43:52.713Z,4.47
2022-08-04T02:49:17.421Z,5.10
2022-08-04T02:54:41.431Z,5.28
2022-08-04T03:00:10.560Z,4.95
2022-08-04T03:06:00.965Z,4.85
2022-08-04T03:11:27.015Z,5.07
2022-08-04T03:17:52.504Z,4.82
2022-08-04T03:23:52.606Z,5.28
2022-08-04T03:29:37.593Z,5.35
2022-08-04T03:35:23.038Z,5.38
2022-08-04T03:41:01.069Z,5.68
2022-08-04T03:46:48.014Z,5.68
2022-08-04T03:52:49.325Z,5.53
2022-08-04T03:58:45.088Z,6.13
2022-08-04T04:04:25.352Z,5.88
2022-08-04T04:10:12.948Z,5.70
2022-08-04T04:16:01.871Z,6.10
2022-08-04T04:21:39.631Z,6.57
2022-08-04T04:27:43.423Z,7.03
2022-08-04T04:33:21.210Z,6.05
2022-08-04T04:39:06.452Z,6.57
2022-08-04T04:44:34.994Z,7.18
2022-08-04T04:50:23.843Z,6.95
2022-08-04T04:56:17.857Z,6.93
2022-08-04T05:02:07.758Z,7.05
2022-08-04T05:08:44.401Z,6.95
2022-08-04T05:14:34.916Z,7.20
2022-08-04T05:19:59.136Z,6.93
2022-08-04T05:25:27.539Z,6.40
2022-08-04T05:31:24.792Z,6.97
2022-08-04T05:36:50.792Z,7.28
2022-08-04T05:42:13.747Z,7.55
2022-08-04T05:47:37.300Z,7.10
2022-08-04T05:53:01.517Z,7.13
2022-08-04T05:58:24.779Z,7.63
2022-08-04T06:03:49.065Z,7.13
2022-08-04T06:09:12.098Z,6.95
2022-08-04T06:14:44.291Z,7.53
2022-08-04T06:20:19.245Z,6.60
2022-08-04T06:25:55.303Z,6.82
2022-08-04T06:32:29.490Z,6.28
2022-08-04T06:37:42.311Z,6.68
2022-08-04T06:43:08.094Z,5.90
2022-08-04T06:48:33.359Z,6.13
2022-08-04T06:53:56.804Z,6.22
2022-08-04T06:59:20.425Z,6.30
2022-08-04T07:04:48.116Z,5.38
2022-08-04T07:10:11.059Z,5.50
2022-08-04T07:15:35.890Z,5.32
2022-08-04T07:20:58.349Z,5.45
2022-08-04T07:26:27.787Z,5.10
2022-08-04T07:31:51.237Z,4.88
2022-08-04T07:37:13.702Z,4.50
2022-08-04T07:42:37.378Z,5.00
2022-08-04T07:48:04.794Z,4.93
2022-08-04T07:53:53.343Z,4.93
2022-08-04T07:59:11.905Z,4.43
2022-08-04T08:04:34.266Z,4.30
2022-08-04T08:09:56.688Z,4.50
2022-08-04T08:15:20.506Z,4.55
2022-08-04T08:20:46.969Z,4.40
2022-08-04T08:26:09.581Z,4.10
2022-08-04T08:31:56.453Z,3.72
2022-08-04T08:37:32.732Z,4.85
2022-08-04T08:44:00.293Z,3.80
2022-08-04T08:50:03.032Z,4.05
2022-08-04T08:55:27.248Z,3.33
2022-08-04T09:00:58.671Z,3.95
2022-08-04T09:06:39.441Z,3.63
2022-08-04T09:12:14.482Z,4.63
2022-08-04T09:17:45.622Z,2.92
2022-08-04T09:23:28.480Z,2.60
2022-08-04T09:28:55.510Z,2.70
2022-08-04T09:34:34.823Z,2.67
2022-08-04T09:40:14.434Z,2.28
2022-08-04T09:45:51.154Z,2.70
2022-08-04T09:51:57.261Z,2.47
2022-08-04T09:57:36.818Z,2.50
2022-08-04T10:03:02.685Z,2.70
2022-08-04T10:08:27.872Z,2.35
2022-08-04T10:14:26.975Z,1.95
2022-08-04T10:20:03.328Z,2.67
2022-08-04T10:26:07.404Z,2.33
2022-08-04T10:31:35.328Z,2.35
2022-08-04T10:37:05.360Z,3.03
2022-08-04T10:42:30.968Z,2.65
2022-08-04T10:48:02.792Z,2.17
2022-08-04T10:53:27.189Z,2.42
2022-08-04T10:59:08.983Z,2.30
2022-08-04T11:04:59.839Z,2.30
2022-08-04T11:10:27.605Z,2.30
2022-08-04T11:15:55.926Z,2.22
2022-08-04T11:21:28.559Z,2.13
2022-08-04T11:27:00.260Z,1.90
2022-08-04T11:32:38.158Z,1.92
2022-08-04T11:38:18.428Z,2.10
2022-08-04T11:44:00.910Z,2.10
2022-08-04T11:49:56.766Z,2.00
2022-08-04T11:55:23.043Z,2.30
2022-08-04T12:00:56.033Z,1.98
2022-08-04T12:06:28.913Z,2.33
2022-08-04T12:12:17.035Z,2.15
2022-08-04T12:17:57.409Z,1.85
2022-08-04T12:23:27.040Z,2.30
2022-08-04T12:29:13.556Z,1.95
2022-08-04T12:34:43.719Z,2.40
2022-08-04T12:40:27.718Z,2.22
2022-08-04T12:45:57.084Z,2.25
2022-08-04T12:51:31.165Z,2.08
2022-08-04T12:57:08.904Z,2.15
2022-08-04T13:02:37.814Z,2.10
2022-08-04T13:08:02.322Z,2.10
2022-08-04T13:13:27.222Z,2.10
2022-08-04T13:18:50.353Z,2.30
2022-08-04T13:24:22.899Z,2.03
2022-08-04T13:30:03.553Z,2.00
2022-08-04T13:35:54.164Z,2.20
2022-08-04T13:41:10.564Z,2.17
2022-08-04T13:46:37.128Z,2.20
2022-08-04T13:52:02.377Z,2.22
2022-08-04T13:57:43.124Z,1.70
2022-08-04T14:03:23.260Z,1.80
2022-08-04T14:08:51.448Z,2.15
2022-08-04T14:14:22.717Z,2.15
2022-08-04T14:19:51.264Z,2.17
2022-08-04T14:25:16.921Z,2.20
2022-08-04T14:30:39.638Z,2.15
2022-08-04T14:36:04.620Z,2.00
2022-08-04T14:41:30.093Z,2.00
2022-08-04T14:46:56.062Z,2.17
2022-08-04T14:52:25.548Z,2.20
2022-08-04T14:58:34.088Z,2.20
2022-08-04T15:03:33.043Z,2.00
2022-08-04T15:08:58.863Z,2.05
2022-08-04T15:14:36.274Z,2.13
2022-08-04T15:20:00.555Z,1.90
2022-08-04T15:25:23.647Z,2.40
2022-08-04T15:30:48.000Z,1.92
2022-08-04T15:36:26.946Z,1.90
2022-08-04T15:42:23.984Z,2.28
2022-08-04T15:48:20.145Z,1.90
2022-08-04T15:54:02.479Z,1.90
2022-08-04T16:00:00.558Z,2.10
2022-08-04T16:05:23.500Z,2.53
2022-08-04T16:10:47.162Z,2.25
2022-08-04T16:16:10.169Z,2.15
2022-08-04T16:21:34.702Z,2.00
2022-08-04T16:27:01.547Z,1.88
2022-08-04T16:32:26.318Z,2.00
2022-08-04T16:37:53.278Z,2.00
2022-08-04T16:43:17.894Z,2.13
2022-08-04T16:48:40.816Z,2.00
2022-08-04T16:54:05.547Z,2.03
2022-08-04T16:59:28.352Z,2.00
2022-08-04T17:05:06.626Z,2.22
2022-08-04T17:10:33.172Z,2.10
2022-08-04T17:16:01.295Z,2.10
2022-08-04T17:21:32.073Z,2.20
2022-08-04T17:26:55.070Z,1.83
2022-08-04T17:38:05.349Z,1.52
2022-08-04T17:44:01.462Z,1.45
2022-08-04T17:49:23.519Z,1.50
2022-08-04T17:54:45.880Z,1.70
2022-08-04T18:00:19.324Z,1.67
2022-08-04T18:06:01.783Z,1.63
2022-08-04T18:11:28.600Z,1.77
2022-08-04T18:16:51.519Z,1.55
2022-08-04T18:28:00.517Z,2.05
2022-08-04T18:33:37.691Z,2.00
2022-08-04T18:39:12.846Z,2.20
2022-08-04T18:44:52.809Z,2.40
2022-08-04T18:50:59.886Z,2.63
2022-08-04T18:55:58.543Z,1.95
2022-08-04T19:01:29.576Z,2.42
2022-08-04T19:06:52.929Z,2.45
2022-08-04T19:12:26.638Z,2.30
2022-08-04T19:17:56.779Z,3.28
2022-08-04T19:24:27.810Z,3.13
2022-08-04T19:29:05.878Z,3.25
2022-08-04T19:34:33.274Z,2.70
2022-08-04T19:39:58.194Z,3.60
2022-08-04T19:45:41.668Z,3.08
2022-08-04T19:51:05.247Z,3.03
2022-08-04T19:56:30.377Z,3.30
2022-08-04T20:02:03.797Z,2.90
2022-08-04T20:07:27.353Z,3.20
2022-08-04T20:12:55.802Z,3.10
2022-08-04T20:18:35.545Z,3.20
2022-08-04T20:24:39.202Z,3.50
2022-08-04T20:29:48.670Z,3.30
2022-08-04T20:35:15.872Z,3.47
2022-08-04T20:40:39.630Z,3.78
2022-08-04T20:46:01.993Z,4.68
2022-08-04T20:51:43.411Z,3.90
2022-08-04T20:57:06.425Z,3.30
2022-08-04T21:02:28.727Z,3.35
2022-08-04T21:07:51.425Z,3.67
2022-08-04T21:13:13.827Z,3.38
2022-08-04T21:18:36.002Z,3.78
2022-08-04T21:23:58.616Z,4.78
2022-08-04T21:29:21.075Z,4.03
2022-08-04T21:34:44.866Z,4.07
2022-08-04T21:40:18.811Z,4.05
2022-08-04T21:45:56.021Z,4.15
2022-08-04T21:51:59.313Z,4.38
2022-08-04T21:57:05.071Z,4.43
2022-08-04T22:02:28.881Z,5.18
2022-08-04T22:07:52.153Z,4.90
2022-08-04T22:13:22.676Z,4.82
2022-08-04T22:18:45.309Z,4.63
2022-08-04T22:24:14.158Z,3.83
2022-08-04T22:29:39.215Z,4.35
2022-08-04T22:35:44.371Z,4.63
2022-08-04T22:40:50.042Z,4.32
2022-08-04T22:46:27.872Z,4.45
2022-08-04T22:51:50.827Z,4.75
2022-08-04T22:57:13.833Z,4.32
2022-08-04T23:02:35.966Z,4.78
2022-08-04T23:07:58.854Z,4.90
2022-08-04T23:13:26.667Z,5.03
2022-08-04T23:18:49.283Z,4.88
2022-08-04T23:24:11.685Z,4.70
2022-08-04T23:29:52.726Z,5.35
2022-08-04T23:35:15.561Z,5.55
2022-08-04T23:40:50.566Z,5.03
2022-08-04T23:46:13.347Z,4.93
2022-08-04T23:51:35.823Z,5.13
2022-08-04T23:56:57.984Z,5.40
